Startpagina
METAR-TAF:

METAR-TAF

Vliegvelden :

General Santos International Airport

General Santos, Filippijnen

breedte: 06-03-29N, lengte: 125-05-46E, hoogte: 154 m

Actueel weer

Dit bericht is 2 uur en het 5 minuten geleden gemaakt, om 09:00 UTC
Wind 11 kt uit het zuidzuidoosten
Temperatuur 28°C
Vochtigheid 84%
Druk 1007 hPa
Zicht 10 km of meer
Weinig wolken op 1800 ft
Gebroken wolken op 8000 ft

METAR: RPMR 250900Z 15011KT 9999 FEW018 BKN080 28/25 Q1007 RMK A2974

Tijdstip: 19:05 (11:05 UTC)

Verwachting

Dit bericht is 6 uur en het 5 minuten geleden gemaakt, om 05:00 UTC
Verwachting geldig van 25 om 06 UTC tot 26 om 06 UTC
Wind 5 kt uit het zuiden
Zicht 10 km of meer
Weinig wolken op 1800 ft
Tijdelijke
van 25 om 06 UTC tot 25 om 12 UTC
Weinig wolken op 1800 ft, Cumulonimbus.
Verspreide wolken op 8000 ft
Wijzigt naar
van 25 om 12 UTC tot 25 om 14 UTC
Weinig wolken op 1800 ft
Gebroken wolken op 8000 ft

TAF: RPMR 250500Z 2506/2606 19005KT 9999 FEW018 TEMPO 2506/2512 FEW018CB SCT080 BECMG 2512/2514 FEW018 BKN080

Waarnemingen en weersverwachtingen van meer dan 4000 vliegvelden (METAR en TAF).

De beschikbare stations zijn de gele en rode punten op de kaart.

Ga met uw muis naar het station om de naam te zien.

Klik dan om waarnemingen en weersverwachtingen te zien.

kaart wijzigen: klik op de groene knoppen met een zwart kruis om in te zoomen, op de groene knop met een streepje om uit te zoomen of op de groene pijlen voor aangrenzende kaarten.


METAR-TAF: